createdAt,value
2023-07-10T00:00:59.635Z,506.00
2023-07-10T00:01:59.584Z,508.00
2023-07-10T00:02:59.663Z,504.00
2023-07-10T00:03:59.672Z,504.00
2023-07-10T00:04:59.586Z,504.00
2023-07-10T00:05:59.596Z,507.00
2023-07-10T00:06:59.580Z,510.00
2023-07-10T00:07:59.571Z,507.00
2023-07-10T00:08:59.572Z,505.00
2023-07-10T00:09:59.554Z,505.00
2023-07-10T00:10:59.562Z,502.00
2023-07-10T00:11:59.547Z,505.00
2023-07-10T00:12:59.533Z,508.00
2023-07-10T00:13:59.564Z,504.00
2023-07-10T00:14:59.514Z,501.00
2023-07-10T00:15:59.518Z,504.00
2023-07-10T00:16:59.524Z,504.00
2023-07-10T00:17:59.530Z,509.00
2023-07-10T00:18:59.486Z,501.00
2023-07-10T00:19:59.469Z,508.00
2023-07-10T00:20:59.456Z,511.00
2023-07-10T00:21:59.459Z,500.00
2023-07-10T00:22:59.469Z,506.00
2023-07-10T00:23:59.498Z,504.00
2023-07-10T00:24:59.510Z,504.00
2023-07-10T00:25:59.532Z,507.00
2023-07-10T00:26:59.556Z,502.00
2023-07-10T00:27:59.570Z,507.00
2023-07-10T00:28:59.589Z,507.00
2023-07-10T00:29:59.609Z,503.00
2023-07-10T00:30:59.657Z,508.00
2023-07-10T00:31:59.661Z,506.00
2023-07-10T00:32:59.710Z,504.00
2023-07-10T00:33:59.691Z,508.00
2023-07-10T00:34:59.726Z,506.00
2023-07-10T00:35:59.766Z,502.00
2023-07-10T00:36:59.734Z,503.00
2023-07-10T00:37:59.727Z,503.00
2023-07-10T00:38:59.728Z,505.00
2023-07-10T00:39:59.730Z,507.00
2023-07-10T00:40:59.723Z,513.00
2023-07-10T00:41:59.716Z,511.00
2023-07-10T00:42:59.719Z,510.00
2023-07-10T00:43:59.712Z,507.00
2023-07-10T00:44:59.714Z,507.00
2023-07-10T00:45:59.716Z,511.00
2023-07-10T00:46:59.770Z,507.00
2023-07-10T00:47:59.744Z,508.00
2023-07-10T00:48:59.729Z,506.00
2023-07-10T00:49:59.713Z,507.00
2023-07-10T00:50:59.697Z,507.00
2023-07-10T00:51:59.698Z,506.00
2023-07-10T00:52:59.689Z,508.00
2023-07-10T00:53:59.692Z,502.00
2023-07-10T00:54:59.691Z,506.00
2023-07-10T00:55:59.692Z,506.00
2023-07-10T00:56:59.696Z,506.00
2023-07-10T00:57:59.669Z,506.00
2023-07-10T00:58:59.663Z,506.00
2023-07-10T00:59:59.668Z,505.00
2023-07-10T01:00:59.706Z,509.00
2023-07-10T01:01:59.664Z,510.00
2023-07-10T01:02:59.737Z,509.00
2023-07-10T01:03:59.651Z,505.00
2023-07-10T01:04:59.652Z,504.00
2023-07-10T01:05:59.628Z,510.00
2023-07-10T01:06:59.641Z,506.00
2023-07-10T01:07:59.629Z,507.00
2023-07-10T01:08:59.621Z,507.00
2023-07-10T01:09:59.620Z,504.00
2023-07-10T01:10:59.633Z,509.00
2023-07-10T01:11:59.615Z,506.00
2023-07-10T01:12:59.633Z,503.00
2023-07-10T01:13:59.636Z,509.00
2023-07-10T01:14:59.612Z,508.00
2023-07-10T01:15:59.648Z,506.00
2023-07-10T01:16:59.680Z,511.00
2023-07-10T01:17:59.615Z,507.00
2023-07-10T01:18:59.636Z,510.00
2023-07-10T01:19:59.651Z,509.00
2023-07-10T01:20:59.691Z,509.00
2023-07-10T01:21:59.702Z,508.00
2023-07-10T01:22:59.740Z,508.00
2023-07-10T01:23:59.771Z,510.00
2023-07-10T01:24:59.783Z,508.00
2023-07-10T01:25:59.815Z,509.00
2023-07-10T01:26:59.830Z,507.00
2023-07-10T01:27:59.854Z,508.00
2023-07-10T01:28:59.875Z,506.00
2023-07-10T01:29:59.903Z,505.00
2023-07-10T01:30:59.951Z,511.00
2023-07-10T01:31:59.959Z,509.00
2023-07-10T01:33:00.020Z,507.00
2023-07-10T01:34:00.006Z,514.00
2023-07-10T01:35:00.032Z,505.00
2023-07-10T01:36:00.068Z,505.00
2023-07-10T01:37:00.109Z,511.00
2023-07-10T01:38:00.139Z,507.00
2023-07-10T01:39:00.153Z,510.00
2023-07-10T01:40:00.198Z,506.00
2023-07-10T01:41:00.214Z,509.00
2023-07-10T01:42:00.239Z,511.00
2023-07-10T01:43:00.283Z,510.00
2023-07-10T01:44:00.301Z,508.00
2023-07-10T01:45:00.383Z,509.00
2023-07-10T01:46:00.365Z,511.00
2023-07-10T01:47:00.415Z,508.00
2023-07-10T01:48:00.640Z,505.00
2023-07-10T01:49:00.557Z,507.00
2023-07-10T01:50:00.487Z,513.00
2023-07-10T01:51:00.525Z,507.00
2023-07-10T01:52:00.559Z,507.00
2023-07-10T01:53:00.583Z,506.00
2023-07-10T01:54:00.613Z,510.00
2023-07-10T01:55:00.640Z,508.00
2023-07-10T01:56:00.786Z,511.00
2023-07-10T01:57:00.724Z,508.00
2023-07-10T01:58:00.743Z,510.00
2023-07-10T01:59:00.781Z,508.00
2023-07-10T02:00:00.818Z,506.00
2023-07-10T02:01:00.865Z,507.00
2023-07-10T02:02:00.933Z,508.00
2023-07-10T02:03:00.950Z,510.00
2023-07-10T02:04:01.057Z,510.00
2023-07-10T02:05:00.904Z,508.00
2023-07-10T02:06:00.924Z,512.00
2023-07-10T02:07:00.905Z,512.00
2023-07-10T02:08:00.897Z,515.00
2023-07-10T02:09:00.884Z,510.00
2023-07-10T02:10:00.904Z,510.00
2023-07-10T02:11:00.908Z,510.00
2023-07-10T02:12:00.872Z,512.00
2023-07-10T02:13:00.880Z,504.00
2023-07-10T02:14:00.898Z,503.00
2023-07-10T02:15:00.906Z,508.00
2023-07-10T02:16:01.084Z,504.00
2023-07-10T02:17:00.932Z,514.00
2023-07-10T02:18:00.885Z,505.00
2023-07-10T02:19:00.884Z,506.00
2023-07-10T02:20:00.878Z,509.00
2023-07-10T02:21:00.874Z,506.00
2023-07-10T02:22:00.892Z,504.00
2023-07-10T02:23:00.958Z,504.00
2023-07-10T02:24:00.961Z,507.00
2023-07-10T02:25:00.993Z,509.00
2023-07-10T02:26:01.134Z,509.00
2023-07-10T02:27:01.064Z,510.00
2023-07-10T02:28:01.081Z,508.00
2023-07-10T02:29:01.108Z,508.00
2023-07-10T02:30:01.140Z,507.00
2023-07-10T02:31:01.171Z,509.00
2023-07-10T02:32:01.338Z,505.00
2023-07-10T02:33:01.265Z,503.00
2023-07-10T02:34:01.268Z,507.00
2023-07-10T02:35:01.323Z,505.00
2023-07-10T02:36:01.423Z,506.00
2023-07-10T02:37:01.371Z,509.00
2023-07-10T02:38:01.401Z,507.00
2023-07-10T02:39:01.439Z,503.00
2023-07-10T02:40:01.486Z,507.00
2023-07-10T02:41:01.507Z,509.00
2023-07-10T02:42:01.543Z,509.00
2023-07-10T02:43:01.560Z,512.00
2023-07-10T02:44:01.606Z,510.00
2023-07-10T02:45:01.644Z,508.00
2023-07-10T02:46:01.832Z,504.00
2023-07-10T02:47:01.695Z,508.00
2023-07-10T02:48:01.855Z,508.00
2023-07-10T02:49:01.769Z,511.00
2023-07-10T02:50:01.843Z,511.00
2023-07-10T02:51:01.834Z,507.00
2023-07-10T02:52:01.869Z,511.00
2023-07-10T02:53:01.897Z,516.00
2023-07-10T02:54:01.930Z,512.00
2023-07-10T02:55:01.964Z,510.00
2023-07-10T02:56:02.318Z,510.00
2023-07-10T02:57:02.039Z,507.00
2023-07-10T02:58:02.112Z,510.00
2023-07-10T02:59:02.106Z,508.00
2023-07-10T03:00:02.137Z,509.00
2023-07-10T03:01:02.217Z,505.00
2023-07-10T03:02:02.192Z,510.00
2023-07-10T03:03:02.276Z,510.00
2023-07-10T03:04:02.270Z,508.00
2023-07-10T03:05:02.323Z,503.00
2023-07-10T03:06:02.552Z,507.00
2023-07-10T03:07:04.154Z,505.00
2023-07-10T03:08:02.378Z,500.00
2023-07-10T03:09:02.422Z,499.00
2023-07-10T03:10:02.467Z,503.00
2023-07-10T03:11:02.519Z,502.00
2023-07-10T03:12:02.539Z,500.00
2023-07-10T03:13:02.580Z,502.00
2023-07-10T03:14:02.677Z,500.00
2023-07-10T03:15:02.681Z,500.00
2023-07-10T03:16:03.122Z,506.00
2023-07-10T03:17:02.769Z,503.00
2023-07-10T03:18:02.903Z,500.00
2023-07-10T03:19:02.862Z,500.00
2023-07-10T03:20:02.923Z,500.00
2023-07-10T03:21:02.989Z,500.00
2023-07-10T03:22:03.041Z,501.00
2023-07-10T03:23:03.119Z,499.00
2023-07-10T03:24:03.174Z,503.00
2023-07-10T03:25:03.254Z,498.00
2023-07-10T03:26:03.740Z,505.00
2023-07-10T03:27:03.385Z,501.00
2023-07-10T03:28:03.452Z,501.00
2023-07-10T03:29:03.537Z,501.00
2023-07-10T03:30:03.601Z,501.00
2023-07-10T03:31:03.685Z,501.00
2023-07-10T03:32:03.732Z,500.00
2023-07-10T03:33:03.842Z,502.00
2023-07-10T03:34:03.893Z,504.00
2023-07-10T03:35:03.949Z,511.00
2023-07-10T03:36:04.383Z,507.00
2023-07-10T03:37:04.095Z,504.00
2023-07-10T03:38:04.131Z,503.00
2023-07-10T03:39:04.188Z,501.00
2023-07-10T03:40:04.199Z,501.00
2023-07-10T03:41:04.233Z,500.00
2023-07-10T03:42:04.235Z,507.00
2023-07-10T03:43:04.274Z,504.00
2023-07-10T03:44:04.311Z,504.00
2023-07-10T03:45:04.323Z,505.00
2023-07-10T03:46:04.602Z,506.00
2023-07-10T03:47:04.426Z,500.00
2023-07-10T03:48:04.408Z,500.00
2023-07-10T03:49:04.362Z,501.00
2023-07-10T03:50:04.385Z,498.00
2023-07-10T03:51:04.382Z,503.00
2023-07-10T03:52:04.384Z,506.00
2023-07-10T03:53:04.390Z,507.00
2023-07-10T03:54:04.395Z,503.00
2023-07-10T03:55:04.405Z,506.00
2023-07-10T03:56:04.670Z,504.00
2023-07-10T03:57:04.412Z,503.00
2023-07-10T03:58:04.427Z,502.00
2023-07-10T03:59:04.412Z,501.00
2023-07-10T04:00:04.436Z,500.00
2023-07-10T04:01:04.464Z,505.00
2023-07-10T04:02:04.453Z,504.00
2023-07-10T04:03:04.537Z,507.00
2023-07-10T04:04:04.625Z,508.00
2023-07-10T04:05:04.497Z,500.00
2023-07-10T04:06:04.915Z,504.00
2023-07-10T04:07:04.573Z,499.00
2023-07-10T04:08:04.602Z,499.00
2023-07-10T04:09:04.562Z,496.00
2023-07-10T04:10:04.606Z,488.00
2023-07-10T04:11:04.613Z,475.00
2023-07-10T04:12:04.612Z,458.00
2023-07-10T04:13:04.619Z,500.00
2023-07-10T04:14:04.682Z,503.00
2023-07-10T04:15:04.658Z,500.00
2023-07-10T04:16:05.227Z,507.00
2023-07-10T04:17:04.802Z,501.00
2023-07-10T04:18:04.742Z,502.00
2023-07-10T04:19:04.720Z,503.00
2023-07-10T04:20:04.732Z,502.00
2023-07-10T04:21:04.759Z,500.00
2023-07-10T04:22:04.754Z,500.00
2023-07-10T04:23:04.775Z,504.00
2023-07-10T04:24:04.796Z,500.00
2023-07-10T04:25:04.818Z,495.00
2023-07-10T04:26:05.058Z,493.00
2023-07-10T04:27:04.834Z,493.00
2023-07-10T04:28:04.840Z,503.00
2023-07-10T04:29:04.940Z,504.00
2023-07-10T04:30:04.867Z,500.00
2023-07-10T04:31:04.909Z,504.00
2023-07-10T04:32:04.879Z,515.00
2023-07-10T04:33:04.959Z,527.00
2023-07-10T04:34:04.902Z,537.00
2023-07-10T04:35:04.907Z,546.00
2023-07-10T04:36:05.112Z,548.00
2023-07-10T04:37:04.928Z,549.00
2023-07-10T04:38:04.937Z,552.00
2023-07-10T04:39:04.971Z,564.00
2023-07-10T04:40:04.962Z,569.00
2023-07-10T04:41:04.984Z,576.00
2023-07-10T04:42:04.976Z,584.00
2023-07-10T04:43:04.997Z,586.00
2023-07-10T04:44:05.008Z,595.00
2023-07-10T04:45:05.028Z,603.00
2023-07-10T04:46:05.292Z,608.00
2023-07-10T04:47:05.161Z,608.00
2023-07-10T04:48:05.140Z,614.00
2023-07-10T04:49:05.080Z,623.00
2023-07-10T04:50:05.076Z,618.00
2023-07-10T04:51:05.093Z,619.00
2023-07-10T04:52:05.095Z,618.00
2023-07-10T04:53:05.134Z,616.00
2023-07-10T04:54:05.168Z,613.00
2023-07-10T04:55:05.205Z,628.00
2023-07-10T04:56:05.522Z,625.00
2023-07-10T04:57:05.263Z,623.00
2023-07-10T04:58:05.297Z,628.00
2023-07-10T04:59:05.347Z,626.00
2023-07-10T05:00:05.366Z,627.00
2023-07-10T05:01:05.402Z,625.00
2023-07-10T05:02:05.467Z,624.00
2023-07-10T05:03:05.508Z,620.00
2023-07-10T05:04:05.604Z,620.00
2023-07-10T05:05:05.560Z,616.00
2023-07-10T05:06:05.863Z,616.00
2023-07-10T05:07:05.630Z,614.00
2023-07-10T05:08:05.671Z,614.00
2023-07-10T05:09:05.706Z,606.00
2023-07-10T05:10:05.738Z,599.00
2023-07-10T05:11:05.776Z,595.00
2023-07-10T05:12:05.821Z,597.00
2023-07-10T05:13:05.858Z,598.00
2023-07-10T05:14:05.945Z,599.00
2023-07-10T05:15:05.935Z,599.00
2023-07-10T05:16:06.169Z,601.00
2023-07-10T05:17:06.027Z,608.00
2023-07-10T05:18:06.049Z,609.00
2023-07-10T05:19:06.094Z,607.00
2023-07-10T05:20:06.131Z,614.00
2023-07-10T05:21:06.190Z,617.00
2023-07-10T05:22:06.211Z,618.00
2023-07-10T05:23:06.248Z,630.00
2023-07-10T05:24:06.286Z,620.00
2023-07-10T05:25:06.333Z,627.00
2023-07-10T05:26:06.594Z,627.00
2023-07-10T05:27:06.426Z,622.00
2023-07-10T05:28:06.472Z,623.00
2023-07-10T05:29:06.498Z,628.00
2023-07-10T05:30:06.565Z,621.00
2023-07-10T05:31:06.594Z,625.00
2023-07-10T05:32:06.734Z,622.00
2023-07-10T05:33:09.308Z,634.00
2023-07-10T05:34:06.666Z,657.00
2023-07-10T05:35:06.670Z,713.00
2023-07-10T05:36:06.946Z,709.00
2023-07-10T05:37:06.693Z,739.00
2023-07-10T05:38:06.717Z,764.00
2023-07-10T05:39:06.713Z,791.00
2023-07-10T05:40:06.730Z,808.00
2023-07-10T05:41:06.748Z,838.00
2023-07-10T05:42:06.750Z,847.00
2023-07-10T05:43:06.748Z,868.00
2023-07-10T05:44:06.752Z,863.00
2023-07-10T05:45:06.786Z,895.00
2023-07-10T05:46:07.190Z,929.00
2023-07-10T05:47:06.787Z,948.00
2023-07-10T05:48:06.791Z,959.00
2023-07-10T05:49:06.788Z,975.00
2023-07-10T05:50:06.806Z,973.00
2023-07-10T05:51:06.849Z,987.00
2023-07-10T05:52:06.830Z,1008.00
2023-07-10T05:53:06.839Z,1021.00
2023-07-10T05:54:06.849Z,1023.00
2023-07-10T05:55:06.847Z,1025.00
2023-07-10T05:56:07.054Z,1034.00
2023-07-10T05:57:06.877Z,1047.00
2023-07-10T05:58:06.876Z,1059.00
2023-07-10T05:59:06.869Z,1062.00
2023-07-10T06:00:06.889Z,1072.00
2023-07-10T06:01:06.908Z,1074.00
2023-07-10T06:02:06.922Z,1062.00
2023-07-10T06:03:06.913Z,1066.00
2023-07-10T06:04:06.969Z,1066.00
2023-07-10T06:05:06.921Z,1061.00
2023-07-10T06:06:07.329Z,1064.00
2023-07-10T06:07:06.922Z,1084.00
2023-07-10T06:08:06.921Z,1086.00
2023-07-10T06:09:06.947Z,1092.00
2023-07-10T06:10:06.924Z,1083.00
2023-07-10T06:11:06.949Z,1093.00
2023-07-10T06:12:06.927Z,1098.00
2023-07-10T06:13:06.912Z,1125.00
2023-07-10T06:14:06.983Z,1117.00
2023-07-10T06:15:06.912Z,1115.00
2023-07-10T06:16:07.294Z,1135.00
2023-07-10T06:17:06.918Z,1151.00
2023-07-10T06:18:06.961Z,1152.00
2023-07-10T06:19:06.915Z,1161.00
2023-07-10T06:20:06.907Z,1179.00
2023-07-10T06:21:06.933Z,1198.00
2023-07-10T06:22:06.922Z,1234.00
2023-07-10T06:23:06.912Z,1229.00
2023-07-10T06:24:06.914Z,1242.00
2023-07-10T06:25:06.926Z,1259.00
2023-07-10T06:26:07.267Z,1265.00
2023-07-10T06:27:07.001Z,1278.00
2023-07-10T06:28:07.072Z,1261.00
2023-07-10T06:29:07.144Z,1289.00
2023-07-10T06:30:07.211Z,1285.00
2023-07-10T06:31:07.334Z,1270.00
2023-07-10T06:32:07.356Z,1272.00
2023-07-10T06:33:07.553Z,1280.00
2023-07-10T06:34:07.482Z,1276.00
2023-07-10T06:35:07.536Z,1277.00
2023-07-10T06:36:07.947Z,1299.00
2023-07-10T06:37:07.655Z,1301.00
2023-07-10T06:38:07.734Z,1308.00
2023-07-10T06:39:07.797Z,1311.00
2023-07-10T06:40:07.866Z,1330.00
2023-07-10T06:41:07.918Z,1350.00
2023-07-10T06:42:07.991Z,1352.00
2023-07-10T06:43:08.062Z,1357.00
2023-07-10T06:44:08.117Z,1383.00
2023-07-10T06:45:08.197Z,1401.00
2023-07-10T06:46:08.571Z,1408.00
2023-07-10T06:47:08.300Z,1427.00
2023-07-10T06:48:08.426Z,1431.00
2023-07-10T06:49:08.440Z,1428.00
2023-07-10T06:50:08.514Z,1391.00
2023-07-10T06:51:08.585Z,1317.00
2023-07-10T06:52:08.619Z,1134.00
2023-07-10T06:54:09.684Z,1043.00
2023-07-10T06:55:08.692Z,943.00
2023-07-10T06:56:09.011Z,770.00
2023-07-10T06:57:08.687Z,695.00
2023-07-10T06:58:08.668Z,651.00
2023-07-10T06:59:08.668Z,625.00
2023-07-10T07:00:08.690Z,607.00
2023-07-10T07:01:08.722Z,571.00
2023-07-10T07:02:08.695Z,537.00
2023-07-10T07:03:08.811Z,518.00
2023-07-10T07:04:08.981Z,502.00
2023-07-10T07:05:08.928Z,503.00
2023-07-10T07:06:09.088Z,509.00
2023-07-10T07:07:09.034Z,500.00
2023-07-10T07:08:09.058Z,500.00
2023-07-10T07:09:09.123Z,500.00
2023-07-10T07:10:09.160Z,505.00
2023-07-10T07:11:09.187Z,505.00
2023-07-10T07:12:09.251Z,534.00
2023-07-10T07:13:09.312Z,706.00
2023-07-10T07:14:09.445Z,1588.00
2023-07-10T07:15:09.434Z,1866.00
2023-07-10T07:16:09.518Z,1592.00
2023-07-10T07:17:09.712Z,1584.00
2023-07-10T07:18:09.630Z,2056.00
2023-07-10T07:19:12.598Z,2392.00
2023-07-10T07:20:09.685Z,2442.00
2023-07-10T07:21:09.662Z,2501.00
2023-07-10T07:22:09.652Z,2346.00
2023-07-10T07:23:09.658Z,2527.00
2023-07-10T07:24:09.660Z,2383.00
2023-07-10T07:25:09.667Z,2099.00
2023-07-10T07:26:09.666Z,1904.00
2023-07-10T07:27:09.707Z,1100.00
2023-07-10T07:28:09.698Z,760.00
2023-07-10T07:29:09.719Z,585.00
2023-07-10T07:30:09.709Z,693.00
2023-07-10T07:31:09.794Z,704.00
2023-07-10T07:32:09.747Z,768.00
2023-07-10T07:33:09.744Z,912.00
2023-07-10T07:34:09.757Z,2700.00
2023-07-10T07:35:09.757Z,3721.00
2023-07-10T07:36:09.784Z,2925.00
2023-07-10T07:37:09.792Z,2429.00
2023-07-10T07:38:09.784Z,2223.00
2023-07-10T07:39:09.836Z,1908.00
2023-07-10T07:40:09.802Z,1526.00
2023-07-10T07:41:09.818Z,1454.00
2023-07-10T07:42:09.823Z,1382.00
2023-07-10T07:43:09.814Z,1224.00
2023-07-10T07:44:09.822Z,1157.00
2023-07-10T07:45:09.833Z,1112.00
2023-07-10T07:46:09.843Z,1032.00
2023-07-10T07:47:09.927Z,1079.00
2023-07-10T07:48:09.886Z,3635.00
2023-07-10T07:49:09.826Z,5349.00
2023-07-10T07:50:09.861Z,6698.00
2023-07-10T07:51:09.835Z,6883.00
2023-07-10T07:52:09.853Z,7073.00
2023-07-10T07:53:09.937Z,8278.00
2023-07-10T07:54:10.018Z,7886.00
2023-07-10T07:55:10.048Z,7477.00
2023-07-10T07:56:10.157Z,7497.00
2023-07-10T07:57:10.188Z,7375.00
2023-07-10T07:58:10.268Z,7348.00
2023-07-10T07:59:10.302Z,7175.00
2023-07-10T08:00:10.362Z,7227.00
2023-07-10T08:01:10.427Z,7449.00
2023-07-10T08:02:10.467Z,7459.00
2023-07-10T08:03:10.676Z,7497.00
2023-07-10T08:04:10.617Z,7435.00
2023-07-10T08:05:24.081Z,7517.00
2023-07-10T08:06:11.673Z,7248.00
2023-07-10T08:07:10.647Z,6738.00
2023-07-10T08:08:10.638Z,5835.00
2023-07-10T08:09:10.633Z,4973.00
2023-07-10T08:10:10.629Z,4652.00
2023-07-10T08:11:10.744Z,4359.00
2023-07-10T08:12:10.652Z,4482.00
2023-07-10T08:13:10.628Z,4763.00
2023-07-10T08:14:10.723Z,4998.00
2023-07-10T08:15:10.664Z,5087.00
2023-07-10T08:16:10.770Z,4947.00
2023-07-10T08:17:10.801Z,4785.00
2023-07-10T08:18:10.844Z,4347.00
2023-07-10T08:19:10.900Z,4038.00
2023-07-10T08:20:10.909Z,3880.00
2023-07-10T08:21:10.900Z,3924.00
2023-07-10T08:22:10.907Z,4041.00
2023-07-10T08:23:10.927Z,4349.00
2023-07-10T08:24:10.966Z,4588.00
2023-07-10T08:25:11.024Z,4697.00
2023-07-10T08:26:11.072Z,4864.00
2023-07-10T08:27:11.097Z,5001.00
2023-07-10T08:28:11.160Z,5113.00
2023-07-10T08:29:11.240Z,5090.00
2023-07-10T08:30:11.297Z,5106.00
2023-07-10T08:31:11.415Z,4989.00
2023-07-10T08:32:11.427Z,4851.00
2023-07-10T08:33:11.614Z,4995.00
2023-07-10T08:34:11.569Z,5257.00
2023-07-10T08:35:11.635Z,5396.00
2023-07-10T08:36:11.699Z,5475.00
2023-07-10T08:37:11.755Z,5579.00
2023-07-10T08:38:11.848Z,5653.00
2023-07-10T08:39:11.886Z,5644.00
2023-07-10T08:40:11.956Z,5646.00
2023-07-10T08:41:11.871Z,5624.00
2023-07-10T08:42:11.873Z,5542.00
2023-07-10T08:43:11.860Z,5514.00
2023-07-10T08:44:11.868Z,5522.00
2023-07-10T08:45:11.845Z,6102.00
2023-07-10T08:46:11.899Z,7449.00
2023-07-10T08:47:11.887Z,8024.00
2023-07-10T08:48:11.878Z,8109.00
2023-07-10T08:49:11.870Z,7760.00
2023-07-10T08:50:11.924Z,7389.00
2023-07-10T08:51:13.525Z,7056.00
2023-07-10T08:52:11.978Z,6865.00
2023-07-10T08:53:11.972Z,6722.00
2023-07-10T08:54:11.986Z,6754.00
2023-07-10T08:55:11.955Z,6707.00
2023-07-10T08:56:11.973Z,6506.00
2023-07-10T08:57:11.946Z,6355.00
2023-07-10T08:58:11.949Z,6316.00
2023-07-10T08:59:11.918Z,6394.00
2023-07-10T09:00:11.908Z,6473.00
2023-07-10T09:01:11.906Z,6434.00
2023-07-10T09:02:11.984Z,6362.00
2023-07-10T09:03:11.904Z,6341.00
2023-07-10T09:04:11.919Z,6292.00
2023-07-10T09:05:11.875Z,6209.00
2023-07-10T09:06:11.875Z,6138.00
2023-07-10T09:07:11.846Z,6073.00
2023-07-10T09:08:11.848Z,6035.00
2023-07-10T09:09:11.830Z,5989.00
2023-07-10T09:10:11.849Z,5962.00
2023-07-10T09:11:11.817Z,5946.00
2023-07-10T09:12:11.828Z,5937.00
2023-07-10T09:13:11.838Z,5916.00
2023-07-10T09:14:11.838Z,5870.00
2023-07-10T09:15:11.822Z,5816.00
2023-07-10T09:16:11.806Z,5805.00
2023-07-10T09:17:11.787Z,5772.00
2023-07-10T09:18:11.783Z,5718.00
2023-07-10T09:19:11.773Z,5675.00
2023-07-10T09:20:11.836Z,5649.00
2023-07-10T09:21:11.759Z,5608.00
2023-07-10T09:22:11.762Z,5588.00
2023-07-10T09:23:11.738Z,5536.00
2023-07-10T09:24:11.739Z,5506.00
2023-07-10T09:25:11.732Z,5494.00
2023-07-10T09:26:11.731Z,5480.00
2023-07-10T09:27:11.719Z,5477.00
2023-07-10T09:28:11.725Z,5433.00
2023-07-10T09:29:11.735Z,5398.00
2023-07-10T09:30:11.782Z,5344.00
2023-07-10T09:31:11.858Z,5301.00
2023-07-10T09:32:12.036Z,5278.00
2023-07-10T09:33:11.960Z,5265.00
2023-07-10T09:34:11.960Z,5256.00
2023-07-10T09:35:11.998Z,5217.00
2023-07-10T09:36:12.051Z,5201.00
2023-07-10T09:37:12.148Z,5182.00
2023-07-10T09:38:12.140Z,5165.00
2023-07-10T09:39:12.177Z,5158.00
2023-07-10T09:40:12.245Z,5140.00
2023-07-10T09:41:12.265Z,5132.00
2023-07-10T09:42:12.302Z,5110.00
2023-07-10T09:43:12.354Z,5085.00
2023-07-10T09:44:12.397Z,5105.00
2023-07-10T09:45:12.450Z,5091.00
2023-07-10T09:46:12.559Z,5118.00
2023-07-10T09:47:12.528Z,5133.00
2023-07-10T09:48:12.587Z,5137.00
2023-07-10T09:49:12.621Z,5105.00
2023-07-10T09:50:12.660Z,5092.00
2023-07-10T09:51:12.717Z,5067.00
2023-07-10T09:52:12.741Z,5070.00
2023-07-10T09:53:12.777Z,5041.00
2023-07-10T09:54:12.812Z,5026.00
2023-07-10T09:55:12.856Z,4964.00
2023-07-10T09:56:12.884Z,4913.00
2023-07-10T09:57:12.918Z,4870.00
2023-07-10T09:58:12.953Z,4843.00
2023-07-10T09:59:12.973Z,4827.00
2023-07-10T10:00:13.000Z,4765.00
2023-07-10T10:01:13.053Z,4704.00
2023-07-10T10:02:13.056Z,4657.00
2023-07-10T10:03:13.118Z,4628.00
2023-07-10T10:04:14.126Z,4586.00
2023-07-10T10:05:13.174Z,4545.00
2023-07-10T10:06:13.194Z,4517.00
2023-07-10T10:07:13.209Z,4486.00
2023-07-10T10:08:13.246Z,4473.00
2023-07-10T10:09:13.275Z,4468.00
2023-07-10T10:10:13.389Z,4452.00
2023-07-10T10:11:13.338Z,4407.00
2023-07-10T10:12:13.427Z,4398.00
2023-07-10T10:13:13.461Z,4361.00
2023-07-10T10:14:13.548Z,4335.00
2023-07-10T10:15:13.476Z,4290.00
2023-07-10T10:16:13.498Z,4265.00
2023-07-10T10:17:13.520Z,4228.00
2023-07-10T10:18:13.876Z,4195.00
2023-07-10T10:19:13.604Z,4162.00
2023-07-10T10:20:13.697Z,4131.00
2023-07-10T10:21:13.665Z,4098.00
2023-07-10T10:22:13.700Z,4077.00
2023-07-10T10:23:13.730Z,4023.00
2023-07-10T10:24:13.746Z,3998.00
2023-07-10T10:25:13.781Z,3964.00
2023-07-10T10:26:13.822Z,3936.00
2023-07-10T10:27:13.842Z,3903.00
2023-07-10T10:28:13.879Z,3875.00
2023-07-10T10:29:13.914Z,3862.00
2023-07-10T10:30:13.931Z,3849.00
2023-07-10T10:31:13.977Z,3855.00
2023-07-10T10:32:13.994Z,3867.00
2023-07-10T10:33:14.383Z,3873.00
2023-07-10T10:34:14.057Z,3905.00
2023-07-10T10:35:14.097Z,3910.00
2023-07-10T10:36:14.083Z,3911.00
2023-07-10T10:37:14.070Z,3914.00
2023-07-10T10:38:14.049Z,3912.00
2023-07-10T10:39:14.045Z,3912.00
2023-07-10T10:40:14.011Z,3919.00
2023-07-10T10:41:14.013Z,3927.00
2023-07-10T10:42:14.002Z,3933.00
2023-07-10T10:43:13.992Z,3935.00
2023-07-10T10:44:13.970Z,3921.00
2023-07-10T10:45:13.958Z,3919.00
2023-07-10T10:46:13.991Z,3901.00
2023-07-10T10:47:13.986Z,3892.00
2023-07-10T10:48:13.918Z,3893.00
2023-07-10T10:49:13.949Z,3890.00
2023-07-10T10:50:13.884Z,3894.00
2023-07-10T10:51:13.885Z,3872.00
2023-07-10T10:52:13.830Z,3885.00
2023-07-10T10:53:13.814Z,3879.00
2023-07-10T10:54:27.550Z,3879.00
2023-07-10T10:55:14.774Z,3880.00
2023-07-10T10:56:13.785Z,3879.00
2023-07-10T10:57:13.757Z,3861.00
2023-07-10T10:58:13.791Z,3841.00
2023-07-10T10:59:13.815Z,3867.00
2023-07-10T11:00:13.694Z,3854.00
2023-07-10T11:01:13.782Z,3846.00
2023-07-10T11:02:13.667Z,3830.00
2023-07-10T11:03:13.812Z,3827.00
2023-07-10T11:04:13.703Z,3818.00
2023-07-10T11:05:13.622Z,3811.00
2023-07-10T11:06:13.598Z,3803.00
2023-07-10T11:07:13.586Z,3790.00
2023-07-10T11:08:13.568Z,3777.00
2023-07-10T11:09:13.569Z,3769.00
2023-07-10T11:10:13.577Z,3758.00
2023-07-10T11:11:13.544Z,3746.00
2023-07-10T11:12:13.536Z,3743.00
2023-07-10T11:13:13.515Z,3739.00
2023-07-10T11:14:13.648Z,3728.00
2023-07-10T11:15:13.550Z,3717.00
2023-07-10T11:16:13.644Z,3717.00
2023-07-10T11:17:13.598Z,3707.00
2023-07-10T11:18:13.646Z,3690.00
2023-07-10T11:19:13.650Z,3694.00
2023-07-10T11:20:13.717Z,3689.00
2023-07-10T11:21:13.722Z,3673.00
2023-07-10T11:22:13.764Z,3668.00
2023-07-10T11:23:13.804Z,3658.00
2023-07-10T11:24:13.794Z,3659.00
2023-07-10T11:25:13.835Z,3640.00
2023-07-10T11:26:13.922Z,3638.00
2023-07-10T11:27:13.922Z,3645.00
2023-07-10T11:28:13.924Z,3621.00
2023-07-10T11:29:13.933Z,3618.00
2023-07-10T11:30:14.075Z,3610.00
2023-07-10T11:31:13.998Z,3607.00
2023-07-10T11:32:13.981Z,3590.00
2023-07-10T11:33:14.015Z,3592.00
2023-07-10T11:34:14.021Z,3581.00
2023-07-10T11:35:20.171Z,3584.00
2023-07-10T11:36:15.078Z,3585.00
2023-07-10T11:37:14.026Z,3585.00
2023-07-10T11:38:14.050Z,3572.00
2023-07-10T11:39:14.055Z,3564.00
2023-07-10T11:40:14.127Z,3556.00
2023-07-10T11:41:14.002Z,3557.00
2023-07-10T11:42:13.995Z,3541.00
2023-07-10T11:43:13.974Z,3525.00
2023-07-10T11:44:13.882Z,3526.00
2023-07-10T11:45:13.868Z,3495.00
2023-07-10T11:46:13.864Z,3487.00
2023-07-10T11:47:13.911Z,3463.00
2023-07-10T11:48:13.837Z,3417.00
2023-07-10T11:49:13.813Z,3409.00
2023-07-10T11:50:13.800Z,3357.00
2023-07-10T11:51:13.811Z,3303.00
2023-07-10T11:52:13.785Z,3248.00
2023-07-10T11:53:13.790Z,3153.00
2023-07-10T11:54:13.758Z,3100.00
2023-07-10T11:55:13.782Z,3047.00
2023-07-10T11:56:13.780Z,2995.00
2023-07-10T11:57:13.782Z,2955.00
2023-07-10T11:58:13.784Z,2925.00
2023-07-10T11:59:13.752Z,2890.00
2023-07-10T12:00:13.818Z,2801.00
2023-07-10T12:01:13.834Z,2734.00
2023-07-10T12:02:13.694Z,2676.00
2023-07-10T12:03:13.668Z,2660.00
2023-07-10T12:04:13.643Z,2678.00
2023-07-10T12:05:13.637Z,2628.00
2023-07-10T12:06:13.612Z,2575.00
2023-07-10T12:07:13.604Z,2504.00
2023-07-10T12:08:13.572Z,2470.00
2023-07-10T12:09:13.543Z,2454.00
2023-07-10T12:10:13.542Z,2455.00
2023-07-10T12:11:13.504Z,2422.00
2023-07-10T12:12:13.479Z,2401.00
2023-07-10T12:13:13.467Z,2317.00
2023-07-10T12:14:13.482Z,2272.00
2023-07-10T12:15:13.428Z,2226.00
2023-07-10T12:16:13.424Z,2184.00
2023-07-10T12:17:38.936Z,2170.00
2023-07-10T12:18:14.387Z,2146.00
2023-07-10T12:19:13.430Z,2124.00